createdAt,value
2018-01-04T00:00:47.892Z,82.45
2018-01-04T00:01:47.807Z,82.54
2018-01-04T00:02:47.718Z,82.73
2018-01-04T00:03:47.645Z,83.20
2018-01-04T00:04:47.548Z,82.54
2018-01-04T00:05:47.466Z,82.73
2018-01-04T00:06:47.394Z,82.73
2018-01-04T00:07:47.317Z,83.11
2018-01-04T00:08:47.219Z,82.92
2018-01-04T00:09:47.148Z,83.30
2018-01-04T00:10:47.066Z,83.73
2018-01-04T00:11:46.973Z,83.64
2018-01-04T00:12:46.903Z,84.59
2018-01-04T00:13:46.809Z,84.21
2018-01-04T00:14:46.724Z,84.11
2018-01-04T00:15:46.646Z,84.78
2018-01-04T00:16:46.560Z,85.16
2018-01-04T00:17:46.487Z,85.72
2018-01-04T00:18:46.406Z,86.20
2018-01-04T00:19:46.323Z,85.53
2018-01-04T00:20:46.257Z,86.01
2018-01-04T00:21:46.153Z,85.91
2018-01-04T00:22:46.065Z,86.20
2018-01-04T00:23:45.988Z,85.91
2018-01-04T00:24:45.900Z,86.39
2018-01-04T00:25:45.817Z,87.15
2018-01-04T00:26:45.735Z,87.34
2018-01-04T00:27:45.653Z,87.62
2018-01-04T00:28:45.578Z,87.62
2018-01-04T00:29:45.489Z,88.48
2018-01-04T00:30:45.402Z,89.05
2018-01-04T00:31:45.323Z,89.24
2018-01-04T00:32:45.240Z,90.00
2018-01-04T00:33:45.156Z,89.90
2018-01-04T00:34:45.073Z,90.38
2018-01-04T00:35:45.036Z,90.00
2018-01-04T00:36:44.916Z,90.19
2018-01-04T00:37:44.825Z,91.14
2018-01-04T00:38:44.741Z,90.95
2018-01-04T00:39:44.659Z,91.14
2018-01-04T00:40:44.578Z,91.14
2018-01-04T00:41:44.498Z,90.95
2018-01-04T00:42:44.424Z,91.33
2018-01-04T00:43:44.329Z,90.76
2018-01-04T00:44:44.248Z,91.04
2018-01-04T00:45:44.190Z,90.95
2018-01-04T00:46:44.084Z,90.85
2018-01-04T00:47:44.009Z,91.24
2018-01-04T00:48:43.916Z,91.94
2018-01-04T00:49:43.835Z,91.85
2018-01-04T00:50:43.751Z,90.95
2018-01-04T00:51:43.665Z,91.38
2018-01-04T00:52:43.585Z,91.47
2018-01-04T00:53:43.502Z,90.90
2018-01-04T00:54:43.422Z,91.09
2018-01-04T00:55:43.337Z,90.85
2018-01-04T00:56:43.254Z,92.09
2018-01-04T00:57:43.173Z,91.14
2018-01-04T00:58:43.088Z,90.95
2018-01-04T00:59:43.003Z,90.95
2018-01-04T01:00:42.922Z,90.95
2018-01-04T01:01:42.838Z,91.24
2018-01-04T01:02:42.755Z,90.95
2018-01-04T01:03:42.685Z,91.04
2018-01-04T01:04:42.589Z,90.76
2018-01-04T01:05:42.512Z,90.95
2018-01-04T01:06:42.424Z,90.00
2018-01-04T01:07:42.340Z,90.38
2018-01-04T01:08:42.257Z,90.19
2018-01-04T01:09:42.179Z,90.09
2018-01-04T01:10:42.094Z,90.57
2018-01-04T01:11:42.010Z,90.38
2018-01-04T01:12:41.927Z,90.00
2018-01-04T01:13:41.848Z,89.53
2018-01-04T01:14:41.762Z,89.24
2018-01-04T01:15:41.680Z,89.05
2018-01-04T01:16:41.598Z,88.86
2018-01-04T01:17:41.513Z,88.95
2018-01-04T01:18:41.430Z,88.48
2018-01-04T01:19:41.348Z,88.57
2018-01-04T01:20:41.266Z,88.95
2018-01-04T01:21:41.185Z,88.86
2018-01-04T01:22:41.098Z,87.91
2018-01-04T01:23:41.018Z,88.29
2018-01-04T01:24:40.936Z,88.10
2018-01-04T01:25:40.859Z,87.72
2018-01-04T01:26:40.769Z,87.62
2018-01-04T01:27:40.686Z,87.82
2018-01-04T01:28:40.621Z,87.34
2018-01-04T01:29:40.521Z,87.53
2018-01-04T01:30:40.439Z,87.34
2018-01-04T01:31:40.356Z,87.05
2018-01-04T01:32:40.273Z,87.43
2018-01-04T01:33:40.197Z,87.82
2018-01-04T01:34:40.107Z,87.62
2018-01-04T01:35:40.026Z,87.53
2018-01-04T01:36:39.943Z,87.72
2018-01-04T01:37:39.860Z,87.72
2018-01-04T01:38:39.776Z,87.62
2018-01-04T01:39:39.694Z,87.62
2018-01-04T01:40:39.610Z,88.01
2018-01-04T01:41:39.530Z,88.29
2018-01-04T01:42:39.445Z,87.72
2018-01-04T01:43:39.362Z,87.82
2018-01-04T01:44:39.300Z,88.67
2018-01-04T01:45:39.200Z,87.91
2018-01-04T01:46:39.114Z,88.29
2018-01-04T01:47:39.033Z,88.48
2018-01-04T01:48:38.949Z,87.72
2018-01-04T01:49:38.870Z,87.15
2018-01-04T01:50:38.783Z,87.24
2018-01-04T01:51:38.705Z,87.15
2018-01-04T01:52:38.620Z,87.34
2018-01-04T01:53:38.536Z,86.58
2018-01-04T01:54:38.454Z,86.11
2018-01-04T01:55:38.371Z,85.82
2018-01-04T01:56:38.289Z,85.63
2018-01-04T01:57:38.206Z,85.16
2018-01-04T01:58:38.122Z,85.06
2018-01-04T01:59:38.044Z,84.78
2018-01-04T02:00:37.955Z,84.49
2018-01-04T02:01:37.878Z,84.78
2018-01-04T02:02:37.792Z,84.97
2018-01-04T02:03:37.709Z,84.59
2018-01-04T02:04:37.625Z,84.59
2018-01-04T02:05:37.544Z,85.16
2018-01-04T02:06:37.461Z,85.16
2018-01-04T02:07:37.375Z,85.16
2018-01-04T02:08:37.295Z,85.16
2018-01-04T02:09:37.210Z,85.72
2018-01-04T02:10:37.133Z,85.53
2018-01-04T02:11:37.049Z,85.06
2018-01-04T02:12:36.965Z,85.72
2018-01-04T02:13:36.886Z,85.72
2018-01-04T02:14:36.797Z,85.25
2018-01-04T02:15:36.720Z,85.16
2018-01-04T02:16:36.634Z,85.16
2018-01-04T02:17:36.552Z,85.06
2018-01-04T02:18:36.467Z,84.59
2018-01-04T02:19:36.391Z,85.16
2018-01-04T02:20:36.303Z,85.53
2018-01-04T02:21:36.220Z,85.16
2018-01-04T02:22:36.138Z,85.06
2018-01-04T02:23:36.053Z,84.59
2018-01-04T02:24:35.972Z,84.21
2018-01-04T02:25:35.890Z,84.87
2018-01-04T02:26:35.810Z,84.97
2018-01-04T02:27:35.722Z,85.25
2018-01-04T02:28:35.643Z,85.72
2018-01-04T02:29:35.565Z,85.72
2018-01-04T02:30:35.473Z,85.53
2018-01-04T02:31:35.394Z,84.97
2018-01-04T02:32:35.308Z,84.68
2018-01-04T02:33:35.230Z,84.68
2018-01-04T02:34:35.145Z,85.16
2018-01-04T02:35:35.069Z,84.97
2018-01-04T02:36:34.982Z,85.16
2018-01-04T02:37:34.898Z,84.21
2018-01-04T02:38:34.821Z,84.40
2018-01-04T02:39:34.732Z,84.59
2018-01-04T02:40:34.648Z,84.59
2018-01-04T02:41:34.569Z,84.11
2018-01-04T02:42:34.482Z,85.35
2018-01-04T02:43:34.401Z,85.16
2018-01-04T02:44:34.319Z,85.53
2018-01-04T02:45:34.243Z,85.16
2018-01-04T02:46:34.154Z,85.63
2018-01-04T02:47:34.070Z,86.30
2018-01-04T02:48:33.987Z,86.39
2018-01-04T02:49:33.906Z,86.11
2018-01-04T02:50:33.823Z,87.05
2018-01-04T02:51:33.744Z,87.43
2018-01-04T02:52:33.664Z,87.62
2018-01-04T02:53:33.574Z,87.72
2018-01-04T02:54:33.496Z,88.86
2018-01-04T02:55:33.408Z,89.05
2018-01-04T02:56:33.339Z,90.00
2018-01-04T02:57:33.242Z,90.38
2018-01-04T02:58:33.161Z,91.14
2018-01-04T02:59:33.077Z,91.24
2018-01-04T03:00:32.997Z,91.24
2018-01-04T03:01:32.913Z,91.99
2018-01-04T03:02:32.834Z,92.14
2018-01-04T03:03:32.744Z,91.71
2018-01-04T03:04:32.664Z,92.23
2018-01-04T03:05:32.580Z,91.66
2018-01-04T03:06:32.502Z,92.14
2018-01-04T03:07:32.417Z,92.23
2018-01-04T03:08:32.335Z,92.33
2018-01-04T03:09:32.251Z,92.42
2018-01-04T03:10:32.165Z,92.61
2018-01-04T03:11:32.084Z,93.08
2018-01-04T03:12:32.000Z,93.18
2018-01-04T03:13:31.919Z,93.18
2018-01-04T03:14:31.834Z,93.46
2018-01-04T03:15:31.752Z,93.65
2018-01-04T03:16:31.670Z,93.56
2018-01-04T03:17:31.586Z,93.46
2018-01-04T03:18:31.502Z,93.37
2018-01-04T03:19:31.421Z,93.27
2018-01-04T03:20:31.336Z,93.75
2018-01-04T03:21:31.260Z,93.65
2018-01-04T03:22:31.171Z,94.13
2018-01-04T03:23:31.093Z,94.13
2018-01-04T03:24:31.006Z,94.03
2018-01-04T03:25:30.929Z,94.13
2018-01-04T03:26:30.842Z,94.13
2018-01-04T03:27:30.757Z,93.75
2018-01-04T03:28:30.675Z,94.03
2018-01-04T03:29:30.591Z,94.32
2018-01-04T03:30:30.508Z,94.32
2018-01-04T03:31:30.430Z,94.51
2018-01-04T03:32:30.343Z,94.03
2018-01-04T03:33:30.261Z,94.32
2018-01-04T03:34:30.177Z,94.42
2018-01-04T03:35:30.098Z,94.98
2018-01-04T03:36:30.012Z,94.03
2018-01-04T03:37:29.926Z,93.84
2018-01-04T03:38:29.851Z,94.32
2018-01-04T03:39:29.761Z,94.13
2018-01-04T03:40:29.683Z,93.75
2018-01-04T03:41:29.595Z,94.70
2018-01-04T03:42:29.512Z,94.23
2018-01-04T03:43:29.429Z,94.23
2018-01-04T03:44:29.346Z,94.70
2018-01-04T03:45:29.268Z,94.70
2018-01-04T03:46:29.191Z,94.42
2018-01-04T03:47:29.097Z,94.32
2018-01-04T03:48:29.014Z,94.32
2018-01-04T03:49:28.934Z,94.03
2018-01-04T03:50:28.846Z,94.60
2018-01-04T03:51:28.765Z,94.79
2018-01-04T03:52:28.679Z,94.70
2018-01-04T03:53:28.597Z,94.23
2018-01-04T03:54:28.514Z,94.03
2018-01-04T03:55:28.430Z,94.51
2018-01-04T03:56:28.354Z,94.32
2018-01-04T03:57:28.265Z,94.32
2018-01-04T03:58:28.183Z,94.23
2018-01-04T03:59:28.099Z,94.23
2018-01-04T04:00:28.017Z,94.51
2018-01-04T04:01:27.933Z,94.51
2018-01-04T04:02:27.849Z,93.84
2018-01-04T04:03:27.765Z,93.94
2018-01-04T04:04:27.688Z,93.56
2018-01-04T04:05:27.601Z,94.32
2018-01-04T04:06:27.527Z,94.32
2018-01-04T04:07:27.432Z,94.23
2018-01-04T04:08:27.351Z,94.03
2018-01-04T04:09:27.282Z,93.75
2018-01-04T04:10:27.184Z,93.94
2018-01-04T04:11:27.103Z,93.94
2018-01-04T04:12:27.017Z,93.94
2018-01-04T04:13:26.938Z,93.75
2018-01-04T04:14:26.848Z,94.51
2018-01-04T04:15:26.775Z,94.13
2018-01-04T04:16:26.686Z,94.32
2018-01-04T04:17:26.607Z,94.13
2018-01-04T04:18:26.568Z,94.42
2018-01-04T04:19:26.434Z,94.32
2018-01-04T04:20:26.351Z,94.42
2018-01-04T04:21:26.274Z,93.75
2018-01-04T04:22:26.186Z,94.03
2018-01-04T04:23:26.104Z,93.94
2018-01-04T04:24:26.020Z,93.94
2018-01-04T04:25:25.940Z,94.32
2018-01-04T04:26:25.851Z,94.08
2018-01-04T04:27:25.772Z,93.80
2018-01-04T04:28:25.689Z,93.70
2018-01-04T04:29:25.605Z,93.75
2018-01-04T04:30:25.518Z,94.03
2018-01-04T04:31:25.434Z,93.70
2018-01-04T04:32:25.356Z,94.23
2018-01-04T04:33:25.269Z,93.84
2018-01-04T04:34:25.186Z,93.94
2018-01-04T04:35:25.105Z,93.94
2018-01-04T04:36:25.020Z,93.94
2018-01-04T04:37:24.935Z,93.75
2018-01-04T04:38:24.849Z,93.94
2018-01-04T04:39:24.770Z,93.84
2018-01-04T04:40:24.683Z,94.23
2018-01-04T04:41:24.601Z,94.32
2018-01-04T04:42:24.519Z,93.56
2018-01-04T04:43:24.440Z,93.84
2018-01-04T04:44:24.371Z,93.56
2018-01-04T04:45:24.284Z,93.65
2018-01-04T04:46:24.185Z,93.65
2018-01-04T04:47:24.103Z,93.75
2018-01-04T04:48:24.020Z,93.56
2018-01-04T04:49:23.934Z,93.56
2018-01-04T04:50:23.851Z,93.65
2018-01-04T04:51:23.767Z,93.37
2018-01-04T04:52:23.685Z,93.75
2018-01-04T04:53:23.601Z,93.46
2018-01-04T04:54:23.526Z,93.75
2018-01-04T04:55:23.431Z,94.13
2018-01-04T04:56:23.352Z,94.42
2018-01-04T04:57:23.273Z,93.56
2018-01-04T04:58:23.185Z,93.37
2018-01-04T04:59:23.106Z,93.94
2018-01-04T05:00:23.015Z,94.51
2018-01-04T05:01:22.939Z,94.70
2018-01-04T05:02:22.850Z,94.98
2018-01-04T05:03:22.765Z,94.98
2018-01-04T05:04:22.688Z,93.94
2018-01-04T05:05:22.601Z,94.32
2018-01-04T05:06:22.518Z,94.32
2018-01-04T05:07:22.436Z,94.79
2018-01-04T05:08:22.356Z,94.70
2018-01-04T05:09:22.268Z,94.51
2018-01-04T05:10:22.187Z,93.65
2018-01-04T05:11:22.105Z,94.23
2018-01-04T05:12:22.025Z,94.51
2018-01-04T05:13:21.937Z,93.65
2018-01-04T05:14:21.850Z,94.70
2018-01-04T05:15:21.768Z,95.17
2018-01-04T05:16:21.685Z,94.70
2018-01-04T05:17:21.602Z,94.23
2018-01-04T05:18:21.520Z,94.32
2018-01-04T05:19:21.438Z,94.13
2018-01-04T05:20:21.351Z,93.84
2018-01-04T05:21:21.268Z,93.56
2018-01-04T05:22:21.189Z,94.03
2018-01-04T05:23:21.102Z,94.23
2018-01-04T05:24:21.022Z,94.42
2018-01-04T05:25:20.936Z,94.23
2018-01-04T05:26:20.854Z,93.84
2018-01-04T05:27:20.792Z,94.13
2018-01-04T05:28:20.686Z,93.37
2018-01-04T05:29:20.604Z,93.75
2018-01-04T05:30:20.521Z,93.75
2018-01-04T05:31:20.441Z,94.32
2018-01-04T05:32:20.353Z,93.65
2018-01-04T05:33:20.269Z,94.03
2018-01-04T05:34:20.187Z,94.13
2018-01-04T05:35:20.102Z,94.42
2018-01-04T05:36:20.022Z,93.94
2018-01-04T05:37:19.938Z,94.03
2018-01-04T05:38:19.852Z,94.23
2018-01-04T05:39:19.782Z,93.75
2018-01-04T05:40:19.691Z,94.60
2018-01-04T05:41:19.604Z,93.94
2018-01-04T05:42:19.522Z,93.56
2018-01-04T05:43:19.436Z,94.32
2018-01-04T05:44:19.352Z,93.56
2018-01-04T05:45:19.273Z,93.56
2018-01-04T05:46:19.189Z,93.94
2018-01-04T05:47:19.118Z,93.75
2018-01-04T05:48:19.024Z,93.56
2018-01-04T05:49:18.941Z,93.75
2018-01-04T05:50:18.854Z,93.65
2018-01-04T05:51:18.775Z,93.84
2018-01-04T05:52:18.692Z,93.37
2018-01-04T05:53:18.603Z,93.56
2018-01-04T05:54:18.521Z,93.56
2018-01-04T05:55:18.440Z,93.75
2018-01-04T05:56:18.357Z,93.94
2018-01-04T05:57:18.273Z,93.84
2018-01-04T05:58:18.188Z,93.94
2018-01-04T05:59:18.116Z,93.56
2018-01-04T06:00:18.031Z,94.13
2018-01-04T06:01:17.939Z,93.65
2018-01-04T06:02:17.858Z,93.27
2018-01-04T06:03:17.772Z,93.56
2018-01-04T06:04:17.692Z,93.65
2018-01-04T06:05:17.607Z,93.65
2018-01-04T06:06:17.523Z,93.84
2018-01-04T06:07:17.441Z,94.13
2018-01-04T06:08:17.358Z,94.03
2018-01-04T06:09:17.275Z,94.13
2018-01-04T06:10:17.188Z,93.84
2018-01-04T06:11:17.107Z,93.56
2018-01-04T06:12:17.022Z,93.94
2018-01-04T06:13:16.941Z,93.75
2018-01-04T06:14:16.854Z,94.32
2018-01-04T06:15:16.773Z,94.60
2018-01-04T06:16:17.297Z,94.13
2018-01-04T06:17:16.605Z,93.84
2018-01-04T06:18:16.524Z,93.94
2018-01-04T06:19:16.451Z,94.42
2018-01-04T06:20:16.357Z,94.60
2018-01-04T06:21:16.276Z,94.70
2018-01-04T06:22:16.187Z,93.84
2018-01-04T06:23:16.109Z,94.42
2018-01-04T06:24:16.034Z,93.94
2018-01-04T06:25:15.938Z,93.56
2018-01-04T06:26:15.860Z,93.75
2018-01-04T06:27:15.774Z,93.75
2018-01-04T06:28:15.694Z,93.56
2018-01-04T06:29:15.607Z,93.75
2018-01-04T06:30:15.527Z,93.65
2018-01-04T06:31:15.438Z,93.65
2018-01-04T06:32:15.359Z,93.56
2018-01-04T06:33:15.285Z,93.56
2018-01-04T06:34:15.193Z,93.75
2018-01-04T06:35:15.104Z,93.65
2018-01-04T06:36:15.033Z,93.75
2018-01-04T06:37:14.942Z,93.75
2018-01-04T06:38:14.861Z,93.56
2018-01-04T06:39:14.773Z,93.94
2018-01-04T06:40:14.702Z,93.65
2018-01-04T06:41:14.639Z,93.18
2018-01-04T06:42:14.538Z,93.18
2018-01-04T06:43:14.436Z,92.99
2018-01-04T06:44:14.356Z,92.80
2018-01-04T06:45:14.276Z,93.08
2018-01-04T06:46:14.189Z,92.99
2018-01-04T06:47:14.105Z,93.08
2018-01-04T06:48:14.021Z,92.90
2018-01-04T06:49:13.940Z,92.90
2018-01-04T06:50:13.855Z,92.99
2018-01-04T06:51:13.774Z,92.71
2018-01-04T06:52:13.690Z,92.99
2018-01-04T06:53:13.610Z,92.90
2018-01-04T06:54:13.518Z,92.90
2018-01-04T06:55:13.438Z,92.23
2018-01-04T06:56:13.357Z,92.80
2018-01-04T06:57:13.273Z,93.27
2018-01-04T06:58:13.186Z,93.18
2018-01-04T06:59:13.104Z,92.80
2018-01-04T07:00:13.020Z,92.71
2018-01-04T07:01:12.939Z,92.90
2018-01-04T07:02:12.854Z,92.61
2018-01-04T07:03:12.770Z,92.33
2018-01-04T07:04:12.691Z,93.18
2018-01-04T07:05:12.604Z,93.18
2018-01-04T07:06:12.522Z,92.71
2018-01-04T07:07:12.442Z,92.42
2018-01-04T07:08:12.356Z,92.52
2018-01-04T07:09:12.321Z,92.52
2018-01-04T07:10:12.189Z,92.52
2018-01-04T07:11:12.110Z,92.42
2018-01-04T07:12:12.019Z,92.61
2018-01-04T07:13:11.939Z,92.52
2018-01-04T07:14:11.853Z,92.61
2018-01-04T07:15:11.768Z,92.71
2018-01-04T07:16:11.694Z,92.61
2018-01-04T07:17:11.610Z,92.52
2018-01-04T07:18:11.519Z,92.23
2018-01-04T07:19:11.438Z,92.52
2018-01-04T07:20:11.355Z,92.52
2018-01-04T07:21:11.271Z,92.90
2018-01-04T07:22:11.187Z,92.71
2018-01-04T07:23:11.107Z,92.71
2018-01-04T07:24:11.018Z,92.80
2018-01-04T07:25:10.938Z,92.33
2018-01-04T07:26:10.852Z,92.42
2018-01-04T07:27:10.780Z,92.42
2018-01-04T07:28:10.689Z,92.42
2018-01-04T07:29:10.601Z,92.52
2018-01-04T07:30:10.521Z,92.52
2018-01-04T07:31:10.439Z,92.14
2018-01-04T07:32:10.352Z,92.14
2018-01-04T07:33:10.274Z,91.85
2018-01-04T07:34:10.188Z,92.23
2018-01-04T07:35:10.105Z,91.56
2018-01-04T07:36:10.022Z,91.75
2018-01-04T07:37:09.939Z,91.75
2018-01-04T07:38:09.852Z,91.85
2018-01-04T07:39:09.775Z,91.85
2018-01-04T07:40:09.688Z,92.04
2018-01-04T07:41:09.607Z,91.66
2018-01-04T07:42:09.521Z,91.00
2018-01-04T07:43:09.443Z,90.90
2018-01-04T07:44:09.358Z,91.19
2018-01-04T07:45:09.274Z,91.75
2018-01-04T07:46:09.195Z,91.19
2018-01-04T07:47:09.106Z,91.19
2018-01-04T07:48:09.022Z,91.28
2018-01-04T07:49:08.944Z,91.28
2018-01-04T07:50:08.861Z,91.47
2018-01-04T07:51:08.787Z,91.38
2018-01-04T07:52:08.693Z,90.81
2018-01-04T07:53:08.610Z,90.71
2018-01-04T07:54:08.525Z,90.90
2018-01-04T07:55:08.441Z,90.62
2018-01-04T07:56:08.360Z,90.62
2018-01-04T07:57:08.281Z,90.52
2018-01-04T07:58:08.192Z,90.62
2018-01-04T07:59:08.111Z,89.95
2018-01-04T08:00:08.029Z,90.24
2018-01-04T08:01:07.944Z,90.52
2018-01-04T08:02:07.862Z,90.05
2018-01-04T08:03:07.776Z,90.33
2018-01-04T08:04:07.696Z,90.33
2018-01-04T08:05:07.612Z,90.19
2018-01-04T08:06:07.528Z,90.09
2018-01-04T08:07:07.443Z,89.67
2018-01-04T08:08:07.367Z,90.05
2018-01-04T08:09:07.279Z,90.38
2018-01-04T08:10:07.198Z,89.62
2018-01-04T08:11:07.113Z,89.72
2018-01-04T08:12:07.032Z,89.72
2018-01-04T08:13:06.947Z,89.62
2018-01-04T08:14:06.863Z,89.53
2018-01-04T08:15:06.781Z,89.43
2018-01-04T08:16:06.700Z,89.24
2018-01-04T08:17:06.656Z,89.33
2018-01-04T08:18:06.532Z,89.05
2018-01-04T08:19:06.451Z,88.76
2018-01-04T08:20:06.367Z,89.24
2018-01-04T08:21:06.285Z,89.24
2018-01-04T08:22:06.200Z,88.86
2018-01-04T08:23:06.117Z,89.43
2018-01-04T08:24:06.035Z,89.05
2018-01-04T08:25:05.955Z,89.24
2018-01-04T08:26:05.870Z,89.14
2018-01-04T08:27:05.784Z,89.43
2018-01-04T08:28:05.704Z,89.24
2018-01-04T08:29:05.624Z,89.43
2018-01-04T08:30:05.539Z,89.24
2018-01-04T08:31:05.458Z,89.24
2018-01-04T08:32:05.374Z,89.24
2018-01-04T08:33:05.288Z,89.14
2018-01-04T08:34:05.210Z,89.43
2018-01-04T08:35:05.123Z,88.76
2018-01-04T08:36:05.046Z,88.57
2018-01-04T08:37:04.958Z,89.05
2018-01-04T08:38:04.873Z,88.76
2018-01-04T08:39:04.793Z,88.57
2018-01-04T08:40:04.709Z,88.95
2018-01-04T08:41:04.626Z,88.76
2018-01-04T08:42:04.542Z,89.05
2018-01-04T08:43:04.474Z,88.86
2018-01-04T08:44:04.378Z,88.86
2018-01-04T08:45:04.296Z,88.95
2018-01-04T08:46:04.213Z,88.67
2018-01-04T08:47:04.129Z,88.67
2018-01-04T08:48:04.051Z,88.57
2018-01-04T08:49:03.968Z,88.76
2018-01-04T08:50:03.894Z,89.05
2018-01-04T08:51:03.800Z,88.57
2018-01-04T08:52:03.729Z,88.57
2018-01-04T08:53:03.634Z,88.57
2018-01-04T08:54:03.552Z,88.57
2018-01-04T08:55:03.467Z,88.57
2018-01-04T08:56:03.387Z,88.57
2018-01-04T08:57:03.309Z,88.29
2018-01-04T08:58:03.223Z,88.39
2018-01-04T08:59:03.139Z,88.57
2018-01-04T09:00:03.059Z,88.39
2018-01-04T09:01:02.974Z,88.57
2018-01-04T09:02:03.417Z,88.86
2018-01-04T09:03:03.409Z,88.57
2018-01-04T09:04:02.728Z,88.29
2018-01-04T09:05:02.646Z,88.67
2018-01-04T09:06:02.563Z,88.48
2018-01-04T09:07:02.481Z,88.39
2018-01-04T09:08:02.397Z,88.57
2018-01-04T09:09:02.329Z,88.57
2018-01-04T09:10:02.236Z,88.57
2018-01-04T09:11:02.150Z,88.86
2018-01-04T09:12:02.073Z,88.95
2018-01-04T09:13:01.988Z,88.39
2018-01-04T09:14:01.904Z,88.39
2018-01-04T09:15:01.843Z,88.48
2018-01-04T09:16:01.740Z,88.81
2018-01-04T09:17:01.661Z,89.05
2018-01-04T09:18:01.574Z,88.86
2018-01-04T09:19:01.492Z,88.39
2018-01-04T09:20:01.411Z,88.48
2018-01-04T09:21:01.330Z,88.57
2018-01-04T09:22:01.248Z,89.05
2018-01-04T09:23:01.166Z,88.48
2018-01-04T09:24:01.084Z,88.01
2018-01-04T09:25:00.999Z,88.29
2018-01-04T09:26:00.917Z,88.20
2018-01-04T09:27:00.838Z,87.82
2018-01-04T09:28:00.754Z,88.05
2018-01-04T09:29:00.672Z,87.57
2018-01-04T09:30:00.590Z,88.34
2018-01-04T09:31:00.511Z,87.95
2018-01-04T09:32:00.425Z,88.53
2018-01-04T09:33:00.342Z,88.62
2018-01-04T09:34:00.263Z,88.53
2018-01-04T09:35:00.178Z,88.62
2018-01-04T09:36:00.101Z,88.43
2018-01-04T09:37:00.021Z,88.53
2018-01-04T09:37:59.937Z,87.86
2018-01-04T09:38:59.858Z,87.86
2018-01-04T09:39:59.768Z,88.71
2018-01-04T09:40:59.693Z,88.62
2018-01-04T09:41:59.604Z,88.81
2018-01-04T09:42:59.522Z,88.81
2018-01-04T09:43:59.442Z,88.62
2018-01-04T09:44:59.359Z,88.81
2018-01-04T09:45:59.277Z,88.15
2018-01-04T09:46:59.194Z,88.05
2018-01-04T09:47:59.126Z,88.05
2018-01-04T09:48:59.033Z,88.43
2018-01-04T09:49:58.947Z,88.62
2018-01-04T09:50:58.873Z,88.43
2018-01-04T09:51:58.785Z,88.62
2018-01-04T09:52:58.702Z,88.43
2018-01-04T09:53:58.620Z,88.43
2018-01-04T09:54:58.538Z,87.95
2018-01-04T09:55:58.459Z,87.76
2018-01-04T09:56:58.377Z,88.62
2018-01-04T09:57:58.293Z,88.34
2018-01-04T09:58:58.213Z,88.53
2018-01-04T09:59:58.129Z,88.43
2018-01-04T10:00:58.047Z,88.43
2018-01-04T10:01:57.964Z,88.81
2018-01-04T10:02:57.884Z,87.86
2018-01-04T10:03:57.800Z,88.15
2018-01-04T10:04:57.719Z,88.05
2018-01-04T10:05:57.635Z,87.67
2018-01-04T10:06:57.555Z,88.15
2018-01-04T10:07:57.472Z,87.95
2018-01-04T10:08:57.391Z,87.86
2018-01-04T10:09:57.308Z,88.34
2018-01-04T10:10:57.231Z,87.95
2018-01-04T10:11:57.160Z,88.53
2018-01-04T10:12:57.064Z,87.76
2018-01-04T10:13:56.981Z,87.67
2018-01-04T10:14:56.901Z,87.67
2018-01-04T10:15:56.817Z,88.62
2018-01-04T10:16:56.736Z,88.43
2018-01-04T10:17:56.654Z,88.43
2018-01-04T10:18:56.572Z,88.43
2018-01-04T10:19:56.491Z,88.62
2018-01-04T10:20:56.408Z,88.62
2018-01-04T10:21:56.327Z,88.24
2018-01-04T10:22:56.282Z,88.24
2018-01-04T10:23:56.162Z,88.53
2018-01-04T10:24:56.080Z,88.90
2018-01-04T10:25:55.995Z,89.19
2018-01-04T10:26:55.917Z,89.00
2018-01-04T10:27:55.832Z,88.90
2018-01-04T10:28:55.752Z,89.47
2018-01-04T10:29:55.674Z,89.47
2018-01-04T10:30:55.587Z,89.38
2018-01-04T10:31:55.510Z,89.76
2018-01-04T10:32:55.425Z,89.28
2018-01-04T10:33:55.344Z,89.19
2018-01-04T10:34:55.260Z,89.47
2018-01-04T10:35:55.181Z,89.67
2018-01-04T10:36:55.098Z,89.86
2018-01-04T10:37:55.014Z,89.76
2018-01-04T10:38:54.932Z,89.86
2018-01-04T10:39:54.852Z,90.42
2018-01-04T10:40:54.771Z,90.42
2018-01-04T10:41:54.687Z,90.14
2018-01-04T10:42:54.630Z,90.14
2018-01-04T10:43:54.524Z,90.14
2018-01-04T10:44:54.443Z,90.23
2018-01-04T10:45:54.361Z,90.71
2018-01-04T10:46:54.279Z,90.71
2018-01-04T10:47:54.197Z,91.28
2018-01-04T10:48:54.117Z,90.99
2018-01-04T10:49:54.028Z,90.99
2018-01-04T10:50:53.953Z,91.38
2018-01-04T10:51:53.867Z,91.38
2018-01-04T10:52:53.783Z,91.89
2018-01-04T10:53:53.699Z,91.52
2018-01-04T10:54:53.617Z,91.80
2018-01-04T10:55:53.538Z,92.32
2018-01-04T10:56:53.454Z,92.28
2018-01-04T10:57:53.374Z,92.13
2018-01-04T10:58:53.290Z,92.28
2018-01-04T10:59:53.209Z,92.23
2018-01-04T11:00:53.126Z,92.18
2018-01-04T11:01:53.043Z,92.75
2018-01-04T11:02:52.961Z,92.56
2018-01-04T11:03:52.879Z,92.32
2018-01-04T11:04:52.794Z,92.75
2018-01-04T11:05:52.714Z,92.61
2018-01-04T11:06:52.630Z,92.66
2018-01-04T11:07:52.548Z,93.04
2018-01-04T11:08:52.467Z,93.04
2018-01-04T11:09:52.399Z,93.41
2018-01-04T11:10:52.300Z,93.65
2018-01-04T11:11:52.219Z,93.84
2018-01-04T11:12:52.139Z,93.65
2018-01-04T11:13:52.055Z,94.18
2018-01-04T11:14:51.973Z,94.27
2018-01-04T11:15:51.891Z,94.08
2018-01-04T11:16:51.807Z,94.84
2018-01-04T11:17:51.724Z,94.65
2018-01-04T11:18:51.644Z,95.03
2018-01-04T11:19:51.560Z,95.31
2018-01-04T11:20:51.521Z,95.51
2018-01-04T11:21:51.445Z,95.12
2018-01-04T11:22:51.365Z,95.41
2018-01-04T11:23:51.271Z,95.51
2018-01-04T11:24:51.189Z,95.89
2018-01-04T11:25:51.091Z,95.89
2018-01-04T11:26:50.983Z,96.08
2018-01-04T11:27:50.903Z,95.89
2018-01-04T11:28:50.821Z,95.41
2018-01-04T11:29:50.739Z,95.41
2018-01-04T11:30:50.653Z,95.94
2018-01-04T11:31:50.572Z,95.46
2018-01-04T11:32:50.495Z,96.08
2018-01-04T11:33:50.407Z,96.26
2018-01-04T11:34:50.323Z,96.45
2018-01-04T11:35:50.242Z,95.98
2018-01-04T11:36:50.162Z,96.17
2018-01-04T11:37:50.136Z,96.17
2018-01-04T11:38:49.999Z,96.17
2018-01-04T11:39:49.913Z,96.26
2018-01-04T11:40:49.835Z,96.55
2018-01-04T11:41:49.750Z,96.55
2018-01-04T11:42:49.668Z,96.45
2018-01-04T11:43:49.590Z,96.36
2018-01-04T11:44:49.504Z,96.45
2018-01-04T11:45:49.422Z,96.55
2018-01-04T11:46:49.342Z,96.31
2018-01-04T11:47:49.276Z,96.45
2018-01-04T11:48:49.174Z,96.55
2018-01-04T11:49:49.096Z,96.74
2018-01-04T11:50:49.012Z,96.74
2018-01-04T11:51:48.929Z,96.83
2018-01-04T11:52:48.845Z,96.36
2018-01-04T11:53:48.763Z,96.45
2018-01-04T11:54:48.680Z,96.93
2018-01-04T11:55:48.606Z,96.60
2018-01-04T11:56:48.517Z,96.64
2018-01-04T11:57:48.437Z,96.45
2018-01-04T11:58:48.358Z,96.93
2018-01-04T11:59:48.272Z,97.02
2018-01-04T12:00:48.189Z,97.22
2018-01-04T12:01:48.147Z,97.88
2018-01-04T12:02:48.026Z,97.60
2018-01-04T12:03:47.943Z,97.41
2018-01-04T12:04:47.859Z,97.22
2018-01-04T12:05:47.779Z,97.60
2018-01-04T12:06:47.694Z,97.22
2018-01-04T12:07:47.615Z,97.12
2018-01-04T12:08:47.532Z,97.60
2018-01-04T12:09:47.465Z,97.60
2018-01-04T12:10:47.367Z,97.41
2018-01-04T12:11:47.286Z,97.50
2018-01-04T12:12:47.215Z,97.41
2018-01-04T12:13:47.120Z,97.78
2018-01-04T12:14:47.040Z,97.60
2018-01-04T12:15:46.955Z,97.60
2018-01-04T12:16:46.875Z,97.41
2018-01-04T12:17:46.793Z,98.35
2018-01-04T12:18:46.711Z,97.88
2018-01-04T12:19:46.626Z,98.07
2018-01-04T12:20:46.547Z,97.97
2018-01-04T12:21:46.463Z,98.26
2018-01-04T12:22:46.391Z,97.97
2018-01-04T12:23:46.298Z,97.97
2018-01-04T12:24:46.217Z,97.60
2018-01-04T12:25:46.132Z,98.35
2018-01-04T12:26:46.053Z,98.45
2018-01-04T12:27:45.968Z,98.45
2018-01-04T12:28:45.889Z,97.78
2018-01-04T12:29:45.806Z,98.35
2018-01-04T12:30:45.723Z,99.02
2018-01-04T12:31:45.642Z,98.73
2018-01-04T12:32:45.558Z,98.73
2018-01-04T12:33:45.476Z,98.73
2018-01-04T12:34:45.394Z,99.02
2018-01-04T12:35:45.313Z,98.73
2018-01-04T12:36:45.231Z,99.11
2018-01-04T12:37:45.146Z,99.58
2018-01-04T12:38:45.067Z,99.30
2018-01-04T12:39:44.982Z,99.30
2018-01-04T12:40:44.900Z,99.02
2018-01-04T12:41:44.818Z,99.30
2018-01-04T12:42:44.737Z,98.92
2018-01-04T12:43:44.656Z,99.49
2018-01-04T12:44:44.572Z,99.11
2018-01-04T12:45:44.489Z,99.30
2018-01-04T12:46:44.407Z,99.30
2018-01-04T12:47:44.332Z,99.30
2018-01-04T12:48:44.244Z,99.11
2018-01-04T12:49:44.161Z,99.11
2018-01-04T12:50:44.085Z,99.30
2018-01-04T12:51:44.001Z,99.49